< < Back
Terminal Aerodrome Forecast


Current Version              Previous Versions:   1  2  3  4  5  6  7  8  9  

Terminal Aerodrome Forecast

179
FTUS42 KJAX 302325
TAFSSI
TAF
KSSI 302325Z 3100/3124 09010KT P6SM VCSH SCT025 BKN040 OVC060
      TEMPO 3100/3104 3SM SHRA BR BKN025
     FM310600 VRB05KT P6SM VCSH BKN015
     FM311200 27007KT P6SM VCSH BKN015
      TEMPO 3113/3117 SCT015 BKN025
     FM311700 21009KT P6SM VCSH SCT015 BKN025=



Latest METAR

014
SAUS70 KWBC 310200 RRH
MTRSSI
METAR KSSI 310153Z AUTO 12011G19KT 10SM BKN032 BKN060 OVC095 28/22 A2997
RMK AO2 SLP150 T02780222


USA.gov is the U.S. government's official web portal to all federal, state and local government web resources and services.